Time;durP1;ratioP1;P1;durP2;ratioP2;P2;SDS_P1;SDS_P2;PMS_P1;PMS_P2;Temp;Humidity;BMP_temperature;BMP_pressure;BME280_temperature;BME280_humidity;BME280_pressure;Samples;Min_cycle;Max_cycle;Signal;HPM_P1;HPM_P2
2021/06/05 03:13:29;;;;;;;50.30;19.17;;;14.70;99.90;;;;;;5565035;22;20038;31
2021/06/05 03:34:23;;;;;;;30.48;18.60;;;;;;;;;;4789906;30;20202;-93
2021/06/05 03:47:07;;;;;;;40.33;15.85;;;;;;;;;;5012485;27;149952;-94
2021/06/05 04:07:08;;;;;;;;;;;;;;;;;;;;;
2021/06/05 04:43:54;;;;;;;29.80;16.90;;;14.40;99.10;;;;;;6107298;22;115854;-95
2021/06/05 04:46:37;;;;;;;;;;;;;;;;;;;;;
2021/06/05 04:54:08;;;;;;;;;;;;;;;;;;;;;
2021/06/05 05:04:43;;;;;;;27.45;15.40;;;15.30;99.90;;;;;;5983229;23;20023;-96
2021/06/05 05:07:19;;;;;;;32.00;17.27;;;13.50;99.90;;;;;;5825757;24;20026;-92
2021/06/05 05:10:09;;;;;;;35.22;17.92;;;14.60;99.90;;;;;;5054763;27;131419;-94
2021/06/05 05:12:48;;;;;;;39.72;19.10;;;14.60;99.90;;;;;;5095468;22;20059;-93
2021/06/05 05:15:42;;;;;;;37.83;16.83;;;14.80;99.90;;;;;;4948984;28;20064;-93
2021/06/05 05:29:53;;;;;;;31.52;18.73;;;15.30;99.90;;;;;;4965276;28;20674;-92
2021/06/05 05:32:22;;;;;;;35.78;19.20;;;15.00;99.90;;;;;;4924357;28;20062;-90
2021/06/05 05:35:16;;;;;;;21.48;13.88;;;15.00;99.90;;;;;;4918452;28;20087;-92
2021/06/05 05:37:43;;;;;;;27.90;12.93;;;15.00;99.90;;;;;;4884231;28;20199;-89
2021/06/05 05:40:14;;;;;;;21.70;12.63;;;;;;;;;;5012639;28;20070;-88
2021/06/05 05:42:54;;;;;;;13.85;8.77;;;;;;;;;;5014558;28;20040;-91
2021/06/05 05:45:23;;;;;;;12.50;7.25;;;;;;;;;;4986957;28;20479;-89
2021/06/05 05:47:50;;;;;;;14.07;9.20;;;14.70;99.90;;;;;;5031155;28;20053;-87
2021/06/05 05:50:23;;;;;;;18.40;10.23;;;15.10;99.90;;;;;;5030796;28;20579;-91
2021/06/05 05:52:55;;;;;;;17.65;11.15;;;14.50;99.90;;;;;;4989891;28;20095;-91
2021/06/05 05:55:21;;;;;;;13.05;9.23;;;16.50;99.90;;;;;;5021405;28;20053;-89
2021/06/05 05:57:48;;;;;;;23.88;10.88;;;14.60;99.90;;;;;;5040512;28;20065;-87
2021/06/05 06:00:19;;;;;;;26.83;11.60;;;;;;;;;;5036262;28;20097;-89
2021/06/05 06:02:46;;;;;;;20.95;9.18;;;;;;;;;;5022743;28;20392;-88
2021/06/05 06:05:12;;;;;;;15.25;9.48;;;;;;;;;;5006703;28;20049;-88
2021/06/05 06:07:39;;;;;;;11.85;6.97;;;;;;;;;;5026298;28;20046;-87
2021/06/05 06:10:07;;;;;;;9.73;7.40;;;;;;;;;;5014775;28;20049;-90
2021/06/05 06:12:34;;;;;;;11.70;6.57;;;;;;;;;;4992522;28;20496;-92
2021/06/05 06:15:04;;;;;;;10.88;7.03;;;;;;;;;;5014694;28;20477;-90
2021/06/05 06:17:33;;;;;;;10.75;8.23;;;;;;;;;;5009656;28;20476;-92
2021/06/05 06:20:03;;;;;;;9.02;7.45;;;15.00;99.90;;;;;;5005984;28;20065;-91
2021/06/05 06:22:31;;;;;;;8.07;6.57;;;13.70;99.90;;;;;;4959451;28;20061;-90
2021/06/05 06:25:33;;;;;;;8.32;6.10;;;15.50;99.90;;;;;;4970300;28;20093;-91
2021/06/05 06:28:04;;;;;;;8.80;7.13;;;14.70;99.90;;;;;;4980908;28;20127;-91
2021/06/05 06:30:37;;;;;;;10.93;8.35;;;;;;;;;;4974032;28;20054;-91
2021/06/05 06:33:10;;;;;;;9.80;7.15;;;14.40;99.90;;;;;;4974216;28;20131;-91
2021/06/05 06:35:41;;;;;;;9.75;7.07;;;14.80;99.90;;;;;;4959928;28;20053;-90
2021/06/05 06:38:11;;;;;;;8.18;6.28;;;;;;;;;;4960259;28;20396;-90
2021/06/05 06:40:40;;;;;;;8.38;5.18;;;14.60;99.90;;;;;;4946788;28;20045;-90
2021/06/05 06:43:09;;;;;;;8.43;6.35;;;14.90;99.90;;;;;;4974516;28;20117;-90
2021/06/05 06:45:35;;;;;;;8.85;6.90;;;15.10;99.90;;;;;;4971804;28;20086;-91
2021/06/05 06:48:01;;;;;;;10.95;7.70;;;14.80;99.90;;;;;;4969906;28;20141;-91
2021/06/05 06:50:29;;;;;;;6.60;5.90;;;;;;;;;;4973818;28;20493;-91
2021/06/05 06:52:57;;;;;;;7.47;5.70;;;15.10;99.90;;;;;;5013600;28;20056;-91
2021/06/05 06:55:24;;;;;;;6.93;5.43;;;;;;;;;;4980295;28;20143;-91
2021/06/05 06:57:50;;;;;;;7.28;6.18;;;;;;;;;;4990445;28;20048;-91
2021/06/05 07:00:32;;;;;;;6.57;5.88;;;;;;;;;;4980218;28;20677;-89
2021/06/05 07:02:59;;;;;;;8.25;6.28;;;;;;;;;;4993144;28;20054;-93
2021/06/05 07:05:26;;;;;;;7.00;5.88;;;;;;;;;;4959049;28;20046;-92
2021/06/05 07:07:55;;;;;;;7.40;6.60;;;;;;;;;;4979102;28;20062;-96
2021/06/05 07:10:29;;;;;;;8.32;7.53;;;15.70;99.90;;;;;;4910671;28;20054;-94
2021/06/05 07:13:03;;;;;;;10.20;9.10;;;16.90;99.90;;;;;;4821706;28;20142;-95
2021/06/05 07:15:32;;;;;;;13.30;11.50;;;16.10;99.90;;;;;;4901443;28;20057;-93
2021/06/05 07:18:01;;;;;;;12.88;11.50;;;;;;;;;;4972416;28;20053;-95
2021/06/05 07:20:29;;;;;;;13.50;12.18;;;16.30;99.90;;;;;;4971131;28;20068;-93
2021/06/05 07:23:01;;;;;;;13.80;12.48;;;17.00;99.90;;;;;;4984611;28;20053;-93
2021/06/05 07:25:34;;;;;;;12.43;11.25;;;16.60;99.90;;;;;;4949102;28;20069;-94
2021/06/05 07:34:50;;;;;;;15.10;13.60;;;16.20;99.90;;;;;;4907176;28;20054;-93
2021/06/05 07:37:20;;;;;;;15.90;14.20;;;16.90;99.90;;;;;;4914990;28;20529;-91
2021/06/05 07:39:49;;;;;;;15.30;13.80;;;17.00;99.90;;;;;;4961594;28;20054;-92
2021/06/05 07:42:16;;;;;;;14.65;13.15;;;17.20;99.90;;;;;;4963708;28;20049;-96
2021/06/05 07:44:42;;;;;;;12.68;11.48;;;17.00;99.90;;;;;;4959325;28;20106;-93
2021/06/05 07:47:18;;;;;;;13.93;12.52;;;17.00;99.90;;;;;;4966774;28;20144;-93
2021/06/05 07:50:24;;;;;;;14.65;13.10;;;17.00;99.90;;;;;;4919466;28;20058;-93
2021/06/05 07:59:47;;;;;;;14.63;13.13;;;17.00;99.90;;;;;;4856901;29;20067;-92
2021/06/05 08:02:34;;;;;;;14.65;13.15;;;17.00;99.90;;;;;;4872939;29;20047;-91
2021/06/05 08:05:00;;;;;;;16.92;15.32;;;17.20;99.90;;;;;;4868499;28;20142;-96
2021/06/05 08:07:26;;;;;;;18.63;16.80;;;17.10;99.90;;;;;;4954205;28;20574;-87
2021/06/05 08:09:53;;;;;;;16.13;14.57;;;16.50;99.90;;;;;;4972271;28;20042;-86
2021/06/05 08:12:19;;;;;;;17.83;16.13;;;17.70;99.90;;;;;;4994319;28;20049;-88
2021/06/05 08:14:45;;;;;;;17.55;15.77;;;17.30;99.90;;;;;;5017202;28;20053;-87
2021/06/05 08:17:11;;;;;;;18.15;16.45;;;17.30;99.90;;;;;;5025091;28;20050;-89
2021/06/05 08:19:37;;;;;;;19.50;17.65;;;17.30;99.90;;;;;;4996337;28;20042;-88
2021/06/05 08:22:05;;;;;;;20.17;18.17;;;17.40;99.90;;;;;;5016360;28;20137;-90
2021/06/05 08:24:31;;;;;;;18.67;16.98;;;17.50;99.90;;;;;;5013383;28;20449;-86
2021/06/05 08:26:57;;;;;;;17.02;15.38;;;17.60;99.90;;;;;;5014103;28;20046;-87
2021/06/05 08:29:23;;;;;;;18.80;17.05;;;17.60;99.90;;;;;;4988430;28;20046;-87
2021/06/05 08:31:52;;;;;;;20.42;18.38;;;17.70;99.90;;;;;;5007587;28;20117;-87
2021/06/05 08:34:19;;;;;;;16.77;15.18;;;17.80;99.90;;;;;;5007058;28;20169;-89
2021/06/05 08:36:46;;;;;;;19.90;17.90;;;17.80;99.90;;;;;;5006898;28;20053;-89
2021/06/05 08:39:12;;;;;;;19.63;17.67;;;17.80;99.90;;;;;;4988851;28;20112;-91
2021/06/05 08:41:46;;;;;;;19.65;17.58;;;;;;;;;;4989990;28;20391;-88
2021/06/05 08:44:18;;;;;;;18.70;16.80;;;;;;;;;;4987500;28;20133;-88
2021/06/05 08:46:46;;;;;;;23.27;20.88;;;;;;;;;;4974969;28;20447;-88
2021/06/05 08:49:24;;;;;;;21.77;19.58;;;18.00;99.90;;;;;;4995431;28;20425;-89
2021/06/05 08:51:58;;;;;;;19.63;17.83;;;;;;;;;;5007591;28;20065;-87
2021/06/05 08:54:43;;;;;;;20.88;18.85;;;;;;;;;;5013166;28;20061;-88
2021/06/05 08:57:15;;;;;;;19.85;18.08;;;;;;;;;;5013060;28;20058;-89
2021/06/05 08:59:43;;;;;;;20.48;18.58;;;;;;;;;;5016277;28;20084;-88
2021/06/05 09:02:10;;;;;;;19.45;17.65;;;;;;;;;;5006856;28;20143;-90
2021/06/05 09:04:38;;;;;;;20.88;18.88;;;;;;;;;;5013584;28;20390;-88
2021/06/05 09:07:06;;;;;;;18.27;16.52;;;;;;;;;;4999034;28;20054;-88
2021/06/05 09:09:33;;;;;;;22.02;19.92;;;;;;;;;;4990636;28;20469;-88
2021/06/05 09:12:00;;;;;;;19.55;17.75;;;;;;;;;;5007995;28;20054;-87
2021/06/05 09:14:27;;;;;;;22.38;20.17;;;;;;;;;;5017735;28;20133;-87
2021/06/05 09:16:54;;;;;;;19.90;18.00;;;;;;;;;;5005582;28;20073;-87
2021/06/05 09:19:20;;;;;;;23.73;21.52;;;;;;;;;;5005798;28;20497;-86
2021/06/05 09:21:52;;;;;;;22.42;20.33;;;;;;;;;;5005319;28;20053;-88
2021/06/05 09:24:37;;;;;;;21.85;19.77;;;;;;;;;;5012046;28;20050;-87
2021/06/05 09:27:03;;;;;;;23.70;21.42;;;;;;;;;;4962984;28;20045;-90
2021/06/05 09:29:30;;;;;;;21.70;19.77;;;;;;;;;;5011620;28;20140;-89
2021/06/05 09:32:08;;;;;;;24.92;22.63;;;;;;;;;;5003452;28;20060;-89
2021/06/05 09:34:41;;;;;;;23.90;21.60;;;;;;;;;;5024109;28;20042;-89
2021/06/05 09:37:25;;;;;;;23.23;21.13;;;;;;;;;;5009625;28;20053;-91
2021/06/05 09:40:03;;;;;;;23.10;21.08;;;;;;;;;;4992244;28;20077;-88
2021/06/05 09:42:31;;;;;;;23.98;21.75;;;;;;;;;;5014450;28;20175;-88
2021/06/05 09:45:00;;;;;;;25.17;22.98;;;;;;;;;;5021246;28;20043;-89
2021/06/05 09:47:28;;;;;;;24.00;21.58;;;;;;;;;;4963764;28;20061;-88
2021/06/05 09:49:59;;;;;;;25.30;22.98;;;;;;;;;;4964802;28;20054;-87
2021/06/05 09:52:32;;;;;;;23.05;20.95;;;;;;;;;;4942656;28;20070;-86
2021/06/05 09:55:18;;;;;;;25.23;22.92;;;;;;;;;;4986578;28;20604;-91
2021/06/05 09:57:49;;;;;;;24.92;22.63;;;;;;;;;;4963948;28;20050;-91
2021/06/05 10:00:29;;;;;;;25.67;23.38;;;;;;;;;;4954279;28;20085;-90
2021/06/05 10:03:16;;;;;;;25.52;23.23;;;;;;;;;;4965462;28;20064;-91
2021/06/05 10:05:45;;;;;;;24.67;22.35;;;;;;;;;;4974722;28;20057;-92
2021/06/05 10:08:30;;;;;;;28.15;25.73;;;;;;;;;;4975602;28;20069;-92
2021/06/05 10:11:19;;;;;;;28.08;25.55;;;;;;;;;;4915432;28;20088;-91
2021/06/05 10:13:51;;;;;;;30.27;27.50;;;;;;;;;;4935578;28;20132;-91
2021/06/05 10:16:22;;;;;;;30.67;27.92;;;;;;;;;;4930545;28;20065;-92
2021/06/05 10:22:15;;;;;;;31.33;28.65;;;;;;;;;;4892300;28;20055;-92
2021/06/05 10:24:51;;;;;;;33.30;30.42;;;;;;;;;;4956169;28;20471;-91
2021/06/05 10:27:22;;;;;;;34.85;31.85;;;;;;;;;;4924015;28;20054;-89
2021/06/05 10:29:50;;;;;;;35.10;32.00;;;;;;;;;;4977157;28;20133;-89
2021/06/05 10:32:28;;;;;;;35.85;32.60;;;;;;;;;;4957932;28;20042;-90
2021/06/05 10:34:58;;;;;;;33.85;30.75;;;;;;;;;;4911172;28;20078;-89
2021/06/05 10:37:41;;;;;;;34.80;31.70;;;;;;;;;;4909932;28;20070;-90
2021/06/05 10:40:26;;;;;;;36.17;32.72;;;;;;;;;;4861862;29;20161;-91
2021/06/05 10:42:56;;;;;;;36.88;33.58;;;;;;;;;;4857813;29;20582;-89
2021/06/05 10:45:29;;;;;;;36.10;32.83;;;;;;;;;;4937550;28;20089;-89
2021/06/05 10:48:06;;;;;;;34.67;31.48;;;;;;;;;;4963474;28;20488;-91
2021/06/05 10:50:39;;;;;;;37.80;34.47;;;;;;;;;;4998551;28;20056;-89
2021/06/05 10:53:11;;;;;;;38.75;35.08;;;;;;;;;;5025141;28;20499;-90
2021/06/05 10:55:49;;;;;;;41.58;37.67;;;;;;;;;;5006708;28;20191;-88
2021/06/05 10:58:27;;;;;;;41.53;37.53;;;;;;;;;;4992594;28;20053;-91
2021/06/05 11:00:55;;;;;;;32.03;28.58;;;;;;;;;;4990730;28;20048;-88
2021/06/05 11:03:24;;;;;;;27.27;24.60;;;;;;;;;;5027158;28;20077;-89
2021/06/05 11:06:11;;;;;;;27.70;24.60;;;;;;;;;;5014972;28;20099;-89
2021/06/05 11:08:42;;;;;;;30.58;27.30;;;;;;;;;;5001547;28;20040;-90
2021/06/05 11:11:08;;;;;;;30.17;26.98;;;;;;;;;;5009693;28;20114;-89
2021/06/05 11:13:37;;;;;;;29.92;26.80;;;;;;;;;;5033396;28;20048;-90
2021/06/05 11:16:09;;;;;;;34.33;30.08;;;;;;;;;;5002880;28;20044;-90
2021/06/05 11:18:55;;;;;;;32.17;28.98;;;;;;;;;;5034226;28;20116;-90
2021/06/05 11:21:21;;;;;;;;;;;;;;;;;;5048706;28;20053;-91
2021/06/05 11:23:56;;;;;;;34.95;30.77;;;;;;;;;;5057916;28;19925;-91
2021/06/05 11:26:35;;;;;;;34.70;30.88;;;;;;;;;;5053779;28;20059;-89
2021/06/05 11:29:04;;;;;;;38.08;31.75;;;;;;;;;;5026068;28;20080;-92
2021/06/05 11:31:39;;;;;;;37.20;32.15;;;;;;;;;;5005030;28;20054;-92
2021/06/05 11:34:08;;;;;;;35.60;31.80;;;;;;;;;;4982912;28;20481;-90
2021/06/05 11:36:59;;;;;;;39.45;32.47;;;;;;;;;;4994344;28;20051;-91
2021/06/05 11:39:25;;;;;;;37.83;33.83;;;;;;;;;;4974122;28;20056;-92
2021/06/05 11:41:55;;;;;;;36.90;30.63;;;;;;;;;;5000356;28;20063;-91
2021/06/05 11:44:24;;;;;;;37.03;33.05;;;;;;;;;;5017715;28;20441;-92
2021/06/05 11:47:00;;;;;;;39.05;34.40;;;;;;;;;;5013608;28;20044;-91
2021/06/05 11:49:44;;;;;;;37.15;33.25;;;;;;;;;;5012999;28;20057;-91
2021/06/05 11:52:35;;;;;;;34.63;30.98;;;;;;;;;;5007352;28;20065;-91
2021/06/05 11:55:15;;;;;;;37.65;33.65;;;;;;;;;;4985953;28;20122;-92
2021/06/05 11:57:43;;;;;;;35.13;31.40;;;;;;;;;;5043661;28;20661;-91
2021/06/05 12:00:15;;;;;;;35.50;31.67;;;;;;;;;;5015247;28;20451;-91
2021/06/05 12:02:42;;;;;;;41.00;36.70;;;;;;;;;;4977194;28;20126;-91
2021/06/05 12:05:21;;;;;;;33.53;29.90;;;;;;;;;;4994931;28;20049;-90
2021/06/05 12:07:49;;;;;;;37.85;33.88;;;;;;;;;;4954798;28;20077;-92
2021/06/05 12:10:34;;;;;;;34.63;31.17;;;;;;;;;;4953722;28;20126;-91
2021/06/05 12:13:05;;;;;;;34.28;30.67;;;;;;;;;;4988528;28;20053;-91
2021/06/05 12:15:35;;;;;;;36.65;32.85;;;;;;;;;;5004306;28;20045;-90
2021/06/05 12:18:05;;;;;;;36.75;32.88;;;;;;;;;;4961606;28;20532;-89
2021/06/05 12:20:43;;;;;;;36.17;32.45;;;;;;;;;;5006732;28;20057;-89
2021/06/05 12:23:24;;;;;;;38.00;33.88;;;;;;;;;;4979140;28;20181;-89
2021/06/05 12:25:51;;;;;;;35.33;31.73;;;;;;;;;;5019426;28;20113;-88
2021/06/05 12:28:23;;;;;;;37.42;33.47;;;;;;;;;;4999794;28;20401;-89
2021/06/05 12:30:50;;;;;;;34.70;31.00;;;;;;;;;;5048700;28;20053;-90
2021/06/05 12:33:45;;;;;;;34.75;31.15;;;;;;;;;;5039167;28;20080;-89
2021/06/05 12:36:11;;;;;;;;;;;;;;;;;;5017103;28;20056;-89
2021/06/05 12:38:39;;;;;;;33.63;30.15;;;;;;;;;;5040735;28;19921;-90
2021/06/05 12:41:07;;;;;;;31.52;28.17;;;;;;;;;;5048170;28;20052;-90
2021/06/05 12:43:35;;;;;;;31.38;28.17;;;;;;;;;;5064579;28;20043;-90
2021/06/05 12:46:04;;;;;;;32.88;29.55;;;;;;;;;;5067717;28;20079;-90
2021/06/05 12:48:30;;;;;;;30.67;27.45;;;;;;;;;;5064030;28;20139;-88
2021/06/05 12:50:58;;;;;;;30.08;27.08;;;;;;;;;;5060697;28;20143;-90
2021/06/05 12:53:29;;;;;;;29.35;26.38;;;;;;;;;;5037240;28;20397;-94
2021/06/05 12:56:06;;;;;;;29.58;26.67;;;;;;;;;;5021766;28;20045;-93
2021/06/05 12:58:36;;;;;;;32.38;29.17;;;;;;;;;;5012155;28;20049;-94
2021/06/05 13:01:06;;;;;;;31.52;28.33;;;;;;;;;;4989151;28;20219;-95
2021/06/05 13:03:49;;;;;;;30.95;27.75;;;;;;;;;;4986033;28;20605;-94
2021/06/05 13:06:15;;;;;;;32.53;29.23;;;;;;;;;;4982849;28;20069;-93
2021/06/05 13:08:45;;;;;;;37.60;33.70;;;;;;;;;;4986762;28;20046;-93
2021/06/05 13:11:13;;;;;;;30.67;27.35;;;;;;;;;;5026751;28;20068;-94
2021/06/05 13:14:03;;;;;;;34.17;30.58;;;;;;;;;;5041423;28;20087;-94
2021/06/05 13:16:30;;;;;;;34.30;30.80;;;;;;;;;;5055980;28;20475;-94
2021/06/05 13:19:17;;;;;;;35.42;31.83;;;;;;;;;;5041465;28;20438;-92
2021/06/05 13:22:01;;;;;;;34.03;30.42;;;;;;;;;;5055308;28;20032;-92
2021/06/05 13:24:30;;;;;;;34.25;30.75;;;;;;;;;;5039994;28;20400;-91
2021/06/05 13:27:14;;;;;;;37.47;33.67;;;;;;;;;;5039093;28;20056;-92
2021/06/05 13:29:44;;;;;;;39.05;35.08;;;;;;;;;;5038940;28;20051;-91
2021/06/05 13:32:12;;;;;;;36.95;33.05;;;;;;;;;;5058795;28;20139;-91
2021/06/05 13:34:47;;;;;;;41.72;37.25;;;;;;;;;;5059679;28;20045;-92
2021/06/05 13:37:19;;;;;;;42.30;37.85;;;;;;;;;;5059725;28;20040;-91
2021/06/05 13:39:48;;;;;;;43.42;38.88;;;;;;;;;;5058787;28;20048;-92
2021/06/05 13:42:16;;;;;;;42.65;38.10;;;;;;;;;;5058998;28;20045;-91
2021/06/05 13:44:45;;;;;;;46.00;41.10;;;;;;;;;;5058759;28;20486;-92
2021/06/05 13:47:16;;;;;;;43.95;39.35;;;;;;;;;;5077488;28;20041;-91
2021/06/05 13:49:45;;;;;;;45.47;40.70;;;;;;;;;;5058180;28;20177;-91
2021/06/05 13:52:13;;;;;;;41.30;36.83;;;;;;;;;;5042098;28;20105;-91
2021/06/05 13:54:40;;;;;;;46.47;41.65;;;;;;;;;;5058568;28;20044;-90
2021/06/05 13:57:10;;;;;;;44.47;39.85;;;;;;;;;;5058756;28;20113;-91
2021/06/05 13:59:41;;;;;;;42.10;37.63;;;;;;;;;;5042166;28;20048;-91
2021/06/05 14:02:10;;;;;;;47.42;42.40;;;;;;;;;;5057740;28;20476;-90
2021/06/05 14:04:41;;;;;;;46.83;41.60;;;;;;;;;;5057874;28;20032;-91
2021/06/05 14:07:11;;;;;;;50.00;42.58;;;;;;;;;;5058366;28;20476;-90
2021/06/05 14:09:38;;;;;;;49.45;42.60;;;;;;;;;;5057337;28;20120;-90
2021/06/05 14:12:17;;;;;;;;;;;;;;;;;;;;;
2021/06/05 14:14:46;;;;;;;51.10;42.58;;;;;;;;;;5075169;28;20067;-91
2021/06/05 14:17:22;;;;;;;50.10;43.78;;;;;;;;;;5038951;28;20464;-90
2021/06/05 14:19:58;;;;;;;50.33;42.75;;;;;;;;;;5054562;28;20045;-91
2021/06/05 14:22:32;;;;;;;51.95;42.50;;;;;;;;;;5037916;28;20084;-89
2021/06/05 14:25:07;;;;;;;49.33;43.85;;;;;;;;;;5054552;28;20048;-90
2021/06/05 14:27:47;;;;;;;51.88;44.78;;;;;;;;;;5053308;28;20049;-90
2021/06/05 14:30:19;;;;;;;49.10;41.67;;;;;;;;;;5062355;28;20090;-90
2021/06/05 14:32:45;;;;;;;50.28;44.03;;;;;;;;;;5040597;28;20056;-89
2021/06/05 14:35:14;;;;;;;54.05;46.78;;;;;;;;;;5074797;28;20037;-90
2021/06/05 14:37:43;;;;;;;55.97;48.22;;;;;;;;;;5057148;28;20044;-90
2021/06/05 14:40:20;;;;;;;50.60;45.05;;;;;;;;;;5058216;28;20044;-90
2021/06/05 14:42:46;;;;;;;56.75;48.38;;;;;;;;;;5040675;28;20404;-90
2021/06/05 14:45:22;;;;;;;50.70;45.15;;;;;;;;;;5041663;28;20068;-89
2021/06/05 14:48:00;;;;;;;;;;;;;;;;;;;;;
2021/06/05 14:50:31;;;;;;;46.95;40.97;;;;;;;;;;5057169;28;20449;-93
2021/06/05 14:53:00;;;;;;;45.75;39.90;;;;;;;;;;5075076;28;20040;-89
2021/06/05 14:55:27;;;;;;;51.33;44.88;;;;;;;;;;5056789;28;20045;-89
2021/06/05 14:57:54;;;;;;;50.20;43.00;;;;;;;;;;5056969;28;20044;-90
2021/06/05 15:00:26;;;;;;;45.35;39.30;;;;;;;;;;5041451;28;20098;-91
2021/06/05 15:02:55;;;;;;;50.20;42.83;;;;;;;;;;5057013;28;20046;-90
2021/06/05 15:05:25;;;;;;;45.38;40.53;;;;;;;;;;5056649;28;20052;-90
2021/06/05 15:07:54;;;;;;;47.03;41.13;;;;;;;;;;5056324;28;20040;-89
2021/06/05 15:10:30;;;;;;;50.50;44.30;;;;;;;;;;5057318;28;20139;-89
2021/06/05 15:12:57;;;;;;;51.13;43.37;;;;;;;;;;5056648;28;20490;-89
2021/06/05 15:15:24;;;;;;;51.13;45.63;;;;;;;;;;5056781;28;20037;-90
2021/06/05 15:17:51;;;;;;;49.58;42.30;;;;;;;;;;5056379;28;20033;-89
2021/06/05 15:20:26;;;;;;;51.03;45.42;;;;;;;;;;5056936;28;20044;-90
2021/06/05 15:22:54;;;;;;;46.05;41.05;;;;;;;;;;5074422;28;20873;-89
2021/06/05 15:25:26;;;;;;;48.88;43.78;;;;;;;;;;5057026;28;20045;-88
2021/06/05 15:27:53;;;;;;;46.95;41.63;;;;;;;;;;5038885;28;20048;-90
2021/06/05 15:30:28;;;;;;;44.60;39.77;;;;;;;;;;5041353;28;20110;-90
2021/06/05 15:33:01;;;;;;;44.05;38.42;;;;;;;;;;5057566;28;20082;-89
2021/06/05 15:35:29;;;;;;;43.55;38.78;;;;;;;;;;5074281;28;20037;-90
2021/06/05 15:37:58;;;;;;;42.80;38.30;;;;;;;;;;5072176;28;20102;-89
2021/06/05 15:40:24;;;;;;;41.17;36.60;;;;;;;;;;5074109;28;20052;-89
2021/06/05 15:42:58;;;;;;;46.88;41.97;;;;;;;;;;5069957;28;20059;-88
2021/06/05 15:45:27;;;;;;;46.25;40.05;;;;;;;;;;5073877;28;20090;-89
2021/06/05 15:47:55;;;;;;;45.58;40.33;;;;;;;;;;5056803;28;20387;-91
2021/06/05 15:50:23;;;;;;;46.15;41.35;;;;;;;;;;5040014;28;20083;-89
2021/06/05 15:52:50;;;;;;;46.40;40.20;;;;;;;;;;5072355;28;20044;-87
2021/06/05 15:55:17;;;;;;;40.55;36.33;;;;;;;;;;5054729;28;20127;-89
2021/06/05 15:57:43;;;;;;;41.72;37.53;;;;;;;;;;5054016;28;20490;-89
2021/06/05 16:00:18;;;;;;;42.60;38.08;;;;;;;;;;5055857;28;20117;-91
2021/06/05 16:02:44;;;;;;;39.88;35.88;;;;;;;;;;5054402;28;20047;-88
2021/06/05 16:05:11;;;;;;;37.35;33.45;;;;;;;;;;5064487;28;20048;-88
2021/06/05 16:07:37;;;;;;;39.05;35.17;;;;;;;;;;5057701;28;20068;-94
2021/06/05 16:10:13;;;;;;;39.13;35.25;;;;;;;;;;5046135;28;20040;-95
2021/06/05 16:12:44;;;;;;;38.50;34.72;;;;;;;;;;5041725;28;20070;-92
2021/06/05 16:15:16;;;;;;;34.35;30.63;;;;;;;;;;5059430;28;20521;-93
2021/06/05 16:17:43;;;;;;;35.33;31.83;;;;;;;;;;5045525;28;20064;-91
2021/06/05 16:20:32;;;;;;;34.40;30.70;;;;;;;;;;5044023;28;20051;-94
2021/06/05 16:22:58;;;;;;;34.92;31.33;;;;;;;;;;5060003;28;20040;-95
2021/06/05 16:25:28;;;;;;;34.42;30.95;;;;;;;;;;5059212;28;20041;-89
2021/06/05 16:27:57;;;;;;;35.55;31.95;;;;;;;;;;5071787;28;20107;-93
2021/06/05 16:30:26;;;;;;;35.85;32.15;;;;;;;;;;5050423;28;20555;-88
2021/06/05 16:32:52;;;;;;;36.70;32.92;;;;;;;;;;5041144;28;20129;-89
2021/06/05 16:35:20;;;;;;;38.20;34.42;;;;;;;;;;5050491;28;20069;-89
2021/06/05 16:37:46;;;;;;;36.72;32.78;;;;;;;;;;5046195;28;20044;-89
2021/06/05 16:40:13;;;;;;;35.50;31.90;;;;;;;;;;5051327;28;20041;-89
2021/06/05 16:42:44;;;;;;;36.97;33.30;;;;;;;;;;5056360;28;20144;-96
2021/06/05 16:45:12;;;;;;;35.83;32.20;;;;;;;;;;5017458;28;20073;-90
2021/06/05 16:47:52;;;;;;;;;;;;;;;;;;;;;
2021/06/05 16:50:24;;;;;;;35.75;32.17;;;;;;;;;;5012265;28;20077;-93
2021/06/05 16:52:51;;;;;;;33.25;29.83;;;;;;;;;;5032125;28;20092;-95
2021/06/05 16:55:20;;;;;;;30.83;27.70;;;;;;;;;;5025429;28;20061;-91
2021/06/05 16:57:48;;;;;;;32.75;29.50;;;;;;;;;;5057430;28;20041;-94
2021/06/05 17:00:24;;;;;;;32.03;28.73;;;;;;;;;;5038298;28;20067;-95
2021/06/05 17:02:53;;;;;;;30.90;27.67;;;;;;;;;;5020244;28;20061;-93
2021/06/05 17:05:27;;;;;;;30.50;27.23;;;;;;;;;;5020335;28;20061;-94
2021/06/05 17:07:59;;;;;;;31.05;28.02;;;;;;;;;;5033928;28;20135;-94
2021/06/05 17:10:34;;;;;;;32.92;29.42;;;;;;;;;;5024996;28;20057;-96
2021/06/05 17:13:04;;;;;;;25.60;22.83;;;;;;;;;;5039718;28;20046;-95
2021/06/05 17:15:36;;;;;;;33.45;30.05;;;;;;;;;;5059055;28;20076;-96
2021/06/05 17:18:05;;;;;;;31.70;28.40;;;;;;;;;;5046162;28;20061;-93
2021/06/05 17:20:32;;;;;;;33.95;30.48;;;;;;;;;;5054925;28;20123;-94
2021/06/05 17:22:59;;;;;;;34.28;30.85;;;;;;;;;;5034202;28;20099;-93
2021/06/05 17:25:31;;;;;;;34.20;30.80;;;;;;;;;;5052462;28;20078;-94
2021/06/05 17:28:00;;;;;;;31.20;27.88;;;;;;;;;;5026978;28;20443;-93
2021/06/05 17:30:27;;;;;;;32.85;29.65;;;;;;;;;;5069456;28;20136;-93
2021/06/05 17:32:53;;;;;;;33.78;30.27;;;;;;;;;;5053966;28;20048;-91
2021/06/05 17:35:20;;;;;;;33.40;30.17;;;;;;;;;;5038154;28;20056;-94
2021/06/05 17:37:50;;;;;;;32.90;29.55;;;;;;;;;;5053832;28;20055;-93
2021/06/05 17:40:18;;;;;;;34.15;30.88;;;;;;;;;;5054407;28;20040;-92
2021/06/05 17:42:45;;;;;;;35.63;32.15;;;;;;;;;;5071542;28;20057;-89
2021/06/05 17:45:12;;;;;;;33.95;30.55;;;;;;;;;;5072987;28;20392;-91
2021/06/05 17:47:39;;;;;;;37.35;33.47;;;;;;;;;;5059338;28;20036;-96
2021/06/05 17:50:07;;;;;;;35.30;31.70;;;;;;;;;;5057260;28;20040;-95
2021/06/05 17:52:46;;;;;;;34.85;31.15;;;;;;;;;;5074943;28;20051;-95
2021/06/05 17:55:15;;;;;;;36.15;30.13;;;;;;;;;;5061911;28;20033;-94
2021/06/05 17:57:41;;;;;;;34.85;31.20;;;;;;;;;;5057516;28;20119;-94
2021/06/05 18:00:13;;;;;;;34.00;30.40;;;;;;;;;;5060920;28;20044;-91
2021/06/05 18:02:40;;;;;;;35.00;31.38;;;;;;;;;;5073439;28;20472;-94
2021/06/05 18:05:08;;;;;;;34.47;30.80;;;;;;;;;;5054755;28;20476;-93
2021/06/05 18:07:37;;;;;;;35.63;32.03;;;;;;;;;;5072818;28;20048;-94
2021/06/05 18:10:07;;;;;;;37.13;33.22;;;;;;;;;;5054751;28;20120;-96
2021/06/05 18:12:33;;;;;;;38.70;34.60;;;;;;;;;;5054352;28;20523;-95
2021/06/05 18:15:00;;;;;;;37.45;33.50;;;;;;;;;;5072463;28;20079;-94
2021/06/05 18:17:28;;;;;;;36.85;32.95;;;;;;;;;;5041466;28;20056;-92
2021/06/05 18:19:57;;;;;;;39.63;35.55;;;;;;;;;;5075192;28;20114;-91
2021/06/05 18:22:25;;;;;;;39.03;34.67;;;;;;;;;;5041991;28;20052;-96
2021/06/05 18:24:52;;;;;;;40.60;36.30;;;;;;;;;;5057903;28;20045;-93
2021/06/05 18:27:19;;;;;;;40.30;36.00;;;;;;;;;;5058759;28;20048;-92
2021/06/05 18:29:46;;;;;;;37.65;33.42;;;;;;;;;;5057312;28;20087;-93
2021/06/05 18:32:15;;;;;;;38.70;34.53;;;;;;;;;;5058053;28;20549;-93
2021/06/05 18:34:43;;;;;;;35.25;31.48;;;;;;;;;;5075488;28;20048;-94
2021/06/05 18:37:11;;;;;;;35.00;31.45;;;;;;;;;;5041103;28;20056;-93
2021/06/05 18:39:38;;;;;;;37.35;33.40;;;;;;;;;;5057127;28;20097;-91
2021/06/05 18:42:10;;;;;;;36.92;33.13;;;;;;;;;;5074047;28;20091;-92
2021/06/05 18:44:36;;;;;;;36.78;32.97;;;;;;;;;;5058065;28;20438;-96
2021/06/05 18:47:03;;;;;;;35.53;31.77;;;;;;;;;;5057559;28;20448;-92
2021/06/05 18:49:31;;;;;;;36.08;31.58;;;;;;;;;;5057993;28;20033;-92
2021/06/05 18:52:05;;;;;;;38.95;34.83;;;;;;;;;;5057904;28;20082;-93
2021/06/05 18:54:34;;;;;;;39.55;35.33;;;;;;;;;;5057117;28;20045;-94
2021/06/05 18:57:05;;;;;;;38.05;34.05;;;;;;;;;;5058152;28;20037;-94
2021/06/05 18:59:36;;;;;;;39.15;33.22;;;;;;;;;;5041421;28;20066;-93
2021/06/05 19:02:03;;;;;;;41.72;35.70;;;;;;;;;;5057457;28;20098;-92
2021/06/05 19:04:32;;;;;;;38.10;34.00;;;;;;;;;;5040527;28;20139;-92
2021/06/05 19:07:01;;;;;;;41.08;36.33;;;;;;;;;;5056795;28;20128;-91
2021/06/05 19:09:29;;;;;;;41.67;33.92;;;;;;;;;;5057225;28;20041;-93
2021/06/05 19:11:56;;;;;;;41.63;36.63;;;;;;;;;;5057209;28;20036;-93
2021/06/05 19:14:37;;;;;;;43.42;37.17;;;;;;;;;;5040338;28;20063;-91
2021/06/05 19:17:04;;;;;;;40.63;36.03;;;;;;;;;;5039874;28;20116;-91
2021/06/05 19:19:31;;;;;;;42.30;36.22;;;;;;;;;;5073634;28;20086;-92
2021/06/05 19:21:58;;;;;;;42.40;34.15;;;;;;;;;;5073306;28;20040;-93
2021/06/05 19:24:26;;;;;;;44.53;35.60;;;;;;;;;;5057543;28;20051;-91
2021/06/05 19:26:54;;;;;;;45.42;35.45;;;;;;;;;;5074613;28;20506;-94
2021/06/05 19:29:21;;;;;;;45.45;37.05;;;;;;;;;;5040137;28;20143;-93
2021/06/05 19:31:52;;;;;;;46.00;37.45;;;;;;;;;;5057761;28;20115;-94
2021/06/05 19:34:18;;;;;;;48.45;38.80;;;;;;;;;;5057061;28;20044;-93
2021/06/05 19:36:47;;;;;;;52.33;39.83;;;;;;;;;;5040390;28;20071;-94
2021/06/05 19:39:15;;;;;;;50.83;37.63;;;;;;;;;;5056559;28;20632;-93
2021/06/05 19:41:42;;;;;;;50.72;40.40;;;;;;;;;;5040365;28;20377;-94